sensor_id;sensor_type;location;lat;lon;timestamp;temperature;humidity
19567;DHT22;9930;49.240;8.548;2023-05-07T00:01:36;19.40;59.60
19567;DHT22;9930;49.240;8.548;2023-05-07T00:04:06;19.40;59.50
19567;DHT22;9930;49.240;8.548;2023-05-07T00:06:32;19.40;59.70
19567;DHT22;9930;49.240;8.548;2023-05-07T00:09:00;19.40;59.70
19567;DHT22;9930;49.240;8.548;2023-05-07T00:11:30;19.40;59.80
19567;DHT22;9930;49.240;8.548;2023-05-07T00:13:57;19.40;59.70
19567;DHT22;9930;49.240;8.548;2023-05-07T00:16:25;19.30;59.80
19567;DHT22;9930;49.240;8.548;2023-05-07T00:18:53;19.30;59.70
19567;DHT22;9930;49.240;8.548;2023-05-07T00:21:21;19.30;59.80
19567;DHT22;9930;49.240;8.548;2023-05-07T00:23:47;19.30;59.80
19567;DHT22;9930;49.240;8.548;2023-05-07T00:26:13;19.30;59.90
19567;DHT22;9930;49.240;8.548;2023-05-07T00:28:41;19.30;59.90
19567;DHT22;9930;49.240;8.548;2023-05-07T00:31:09;19.30;60.00
19567;DHT22;9930;49.240;8.548;2023-05-07T00:33:39;19.20;60.00
19567;DHT22;9930;49.240;8.548;2023-05-07T00:36:08;19.20;60.20
19567;DHT22;9930;49.240;8.548;2023-05-07T00:38:37;19.20;60.20
19567;DHT22;9930;49.240;8.548;2023-05-07T00:41:02;19.20;60.20
19567;DHT22;9930;49.240;8.548;2023-05-07T00:43:28;19.10;60.10
19567;DHT22;9930;49.240;8.548;2023-05-07T00:45:57;19.10;60.20
19567;DHT22;9930;49.240;8.548;2023-05-07T00:48:23;19.10;60.30
19567;DHT22;9930;49.240;8.548;2023-05-07T00:50:53;19.10;60.30
19567;DHT22;9930;49.240;8.548;2023-05-07T00:53:19;19.10;60.40
19567;DHT22;9930;49.240;8.548;2023-05-07T00:55:45;19.10;60.60
19567;DHT22;9930;49.240;8.548;2023-05-07T00:58:14;19.10;60.60
19567;DHT22;9930;49.240;8.548;2023-05-07T01:00:43;19.00;60.50
19567;DHT22;9930;49.240;8.548;2023-05-07T01:03:10;19.00;60.60
19567;DHT22;9930;49.240;8.548;2023-05-07T01:05:38;19.00;60.80
19567;DHT22;9930;49.240;8.548;2023-05-07T01:08:08;18.90;60.80
19567;DHT22;9930;49.240;8.548;2023-05-07T01:10:38;18.90;60.90
19567;DHT22;9930;49.240;8.548;2023-05-07T01:13:09;18.90;61.00
19567;DHT22;9930;49.240;8.548;2023-05-07T01:15:37;18.90;61.10
19567;DHT22;9930;49.240;8.548;2023-05-07T01:18:07;18.80;61.20
19567;DHT22;9930;49.240;8.548;2023-05-07T01:20:36;18.80;61.40
19567;DHT22;9930;49.240;8.548;2023-05-07T01:23:03;18.80;61.50
19567;DHT22;9930;49.240;8.548;2023-05-07T01:25:32;18.80;61.60
19567;DHT22;9930;49.240;8.548;2023-05-07T01:28:01;18.70;61.60
19567;DHT22;9930;49.240;8.548;2023-05-07T01:30:28;18.80;61.60
19567;DHT22;9930;49.240;8.548;2023-05-07T01:33:06;18.70;61.60
19567;DHT22;9930;49.240;8.548;2023-05-07T01:35:41;18.70;61.80
19567;DHT22;9930;49.240;8.548;2023-05-07T01:38:11;18.70;61.70
19567;DHT22;9930;49.240;8.548;2023-05-07T01:40:37;18.70;61.80
19567;DHT22;9930;49.240;8.548;2023-05-07T01:43:06;18.70;61.80
19567;DHT22;9930;49.240;8.548;2023-05-07T01:45:38;18.70;61.80
19567;DHT22;9930;49.240;8.548;2023-05-07T01:48:10;18.60;61.90
19567;DHT22;9930;49.240;8.548;2023-05-07T01:50:38;18.60;62.00
19567;DHT22;9930;49.240;8.548;2023-05-07T01:53:07;18.60;62.10
19567;DHT22;9930;49.240;8.548;2023-05-07T01:55:36;18.50;62.30
19567;DHT22;9930;49.240;8.548;2023-05-07T01:58:05;18.50;62.30
19567;DHT22;9930;49.240;8.548;2023-05-07T02:00:32;18.40;62.30
19567;DHT22;9930;49.240;8.548;2023-05-07T02:02:58;18.40;62.50
19567;DHT22;9930;49.240;8.548;2023-05-07T02:05:26;18.30;62.50
19567;DHT22;9930;49.240;8.548;2023-05-07T02:07:56;18.30;62.60
19567;DHT22;9930;49.240;8.548;2023-05-07T02:10:24;18.30;63.60
19567;DHT22;9930;49.240;8.548;2023-05-07T02:12:50;18.20;62.80
19567;DHT22;9930;49.240;8.548;2023-05-07T02:15:18;18.20;62.90
19567;DHT22;9930;49.240;8.548;2023-05-07T02:18:03;18.20;63.10
19567;DHT22;9930;49.240;8.548;2023-05-07T02:20:35;18.10;63.70
19567;DHT22;9930;49.240;8.548;2023-05-07T02:23:01;18.10;63.20
19567;DHT22;9930;49.240;8.548;2023-05-07T02:25:30;18.00;63.30
19567;DHT22;9930;49.240;8.548;2023-05-07T02:27:56;18.00;63.30
19567;DHT22;9930;49.240;8.548;2023-05-07T02:30:21;18.00;63.40
19567;DHT22;9930;49.240;8.548;2023-05-07T02:32:50;17.90;63.50
19567;DHT22;9930;49.240;8.548;2023-05-07T02:35:18;17.90;63.70
19567;DHT22;9930;49.240;8.548;2023-05-07T02:37:46;17.90;63.80
19567;DHT22;9930;49.240;8.548;2023-05-07T02:40:14;17.90;63.90
19567;DHT22;9930;49.240;8.548;2023-05-07T02:42:42;17.90;64.00
19567;DHT22;9930;49.240;8.548;2023-05-07T02:45:08;17.90;64.00
19567;DHT22;9930;49.240;8.548;2023-05-07T02:47:36;17.80;64.00
19567;DHT22;9930;49.240;8.548;2023-05-07T02:50:02;17.80;64.20
19567;DHT22;9930;49.240;8.548;2023-05-07T02:52:30;17.80;64.20
19567;DHT22;9930;49.240;8.548;2023-05-07T02:54:57;17.80;64.20
19567;DHT22;9930;49.240;8.548;2023-05-07T02:57:23;17.70;64.20
19567;DHT22;9930;49.240;8.548;2023-05-07T02:59:49;17.70;64.30
19567;DHT22;9930;49.240;8.548;2023-05-07T03:02:18;17.70;64.40
19567;DHT22;9930;49.240;8.548;2023-05-07T03:04:44;17.70;64.50
19567;DHT22;9930;49.240;8.548;2023-05-07T03:07:11;17.70;64.60
19567;DHT22;9930;49.240;8.548;2023-05-07T03:09:40;17.60;64.60
19567;DHT22;9930;49.240;8.548;2023-05-07T03:12:06;17.60;64.70
19567;DHT22;9930;49.240;8.548;2023-05-07T03:14:32;17.60;64.80
19567;DHT22;9930;49.240;8.548;2023-05-07T03:16:57;17.60;64.70
19567;DHT22;9930;49.240;8.548;2023-05-07T03:19:23;17.60;64.80
19567;DHT22;9930;49.240;8.548;2023-05-07T03:21:48;17.60;64.80
19567;DHT22;9930;49.240;8.548;2023-05-07T03:24:14;17.60;64.90
19567;DHT22;9930;49.240;8.548;2023-05-07T03:26:42;17.50;64.90
19567;DHT22;9930;49.240;8.548;2023-05-07T03:29:08;17.50;65.10
19567;DHT22;9930;49.240;8.548;2023-05-07T03:31:36;17.50;65.00
19567;DHT22;9930;49.240;8.548;2023-05-07T03:34:06;17.50;65.00
19567;DHT22;9930;49.240;8.548;2023-05-07T03:36:36;17.50;64.90
19567;DHT22;9930;49.240;8.548;2023-05-07T03:39:01;17.50;65.00
19567;DHT22;9930;49.240;8.548;2023-05-07T03:41:30;17.50;65.00
19567;DHT22;9930;49.240;8.548;2023-05-07T03:43:58;17.40;65.00
19567;DHT22;9930;49.240;8.548;2023-05-07T03:46:23;17.40;65.10
19567;DHT22;9930;49.240;8.548;2023-05-07T03:48:53;17.40;65.10
19567;DHT22;9930;49.240;8.548;2023-05-07T03:51:21;17.40;65.20
19567;DHT22;9930;49.240;8.548;2023-05-07T03:53:46;17.40;65.20
19567;DHT22;9930;49.240;8.548;2023-05-07T03:56:20;17.40;65.20
19567;DHT22;9930;49.240;8.548;2023-05-07T03:58:47;17.40;65.20
19567;DHT22;9930;49.240;8.548;2023-05-07T04:01:15;17.40;65.10
19567;DHT22;9930;49.240;8.548;2023-05-07T04:03:43;17.40;65.10
19567;DHT22;9930;49.240;8.548;2023-05-07T04:06:11;17.40;65.30
19567;DHT22;9930;49.240;8.548;2023-05-07T04:08:38;17.40;65.50
19567;DHT22;9930;49.240;8.548;2023-05-07T04:11:09;17.40;65.50
19567;DHT22;9930;49.240;8.548;2023-05-07T04:13:36;17.40;65.50
19567;DHT22;9930;49.240;8.548;2023-05-07T04:16:03;17.40;65.60
19567;DHT22;9930;49.240;8.548;2023-05-07T04:18:32;17.40;65.60
19567;DHT22;9930;49.240;8.548;2023-05-07T04:20:57;17.40;65.70
19567;DHT22;9930;49.240;8.548;2023-05-07T04:23:26;17.40;65.70
19567;DHT22;9930;49.240;8.548;2023-05-07T04:25:51;17.40;65.90
19567;DHT22;9930;49.240;8.548;2023-05-07T04:28:18;17.50;66.00
19567;DHT22;9930;49.240;8.548;2023-05-07T04:30:45;17.50;66.00
19567;DHT22;9930;49.240;8.548;2023-05-07T04:33:16;17.50;66.10
19567;DHT22;9930;49.240;8.548;2023-05-07T04:35:42;17.50;66.10
19567;DHT22;9930;49.240;8.548;2023-05-07T04:38:12;17.50;66.10
19567;DHT22;9930;49.240;8.548;2023-05-07T04:40:40;17.60;66.20
19567;DHT22;9930;49.240;8.548;2023-05-07T04:43:06;17.60;66.20
19567;DHT22;9930;49.240;8.548;2023-05-07T04:45:36;17.70;66.20
19567;DHT22;9930;49.240;8.548;2023-05-07T04:48:06;17.70;66.20
19567;DHT22;9930;49.240;8.548;2023-05-07T04:50:35;17.70;66.30
19567;DHT22;9930;49.240;8.548;2023-05-07T04:53:01;17.80;66.20
19567;DHT22;9930;49.240;8.548;2023-05-07T04:55:31;17.80;66.20
19567;DHT22;9930;49.240;8.548;2023-05-07T04:57:59;17.90;66.10
19567;DHT22;9930;49.240;8.548;2023-05-07T05:00:26;17.90;65.90
19567;DHT22;9930;49.240;8.548;2023-05-07T05:02:59;17.90;65.90
19567;DHT22;9930;49.240;8.548;2023-05-07T05:05:25;17.90;65.80
19567;DHT22;9930;49.240;8.548;2023-05-07T05:07:51;18.00;65.80
19567;DHT22;9930;49.240;8.548;2023-05-07T05:10:17;18.00;65.80
19567;DHT22;9930;49.240;8.548;2023-05-07T05:12:43;18.00;65.80
19567;DHT22;9930;49.240;8.548;2023-05-07T05:15:10;18.10;65.80
19567;DHT22;9930;49.240;8.548;2023-05-07T05:17:39;18.10;65.80
19567;DHT22;9930;49.240;8.548;2023-05-07T05:20:07;18.20;65.80
19567;DHT22;9930;49.240;8.548;2023-05-07T05:22:36;18.20;65.70
19567;DHT22;9930;49.240;8.548;2023-05-07T05:25:09;18.20;65.70
19567;DHT22;9930;49.240;8.548;2023-05-07T05:27:38;18.30;65.80
19567;DHT22;9930;49.240;8.548;2023-05-07T05:30:05;18.40;65.80
19567;DHT22;9930;49.240;8.548;2023-05-07T05:32:36;18.40;65.70
19567;DHT22;9930;49.240;8.548;2023-05-07T05:35:02;18.50;65.70
19567;DHT22;9930;49.240;8.548;2023-05-07T05:37:28;18.60;65.70
19567;DHT22;9930;49.240;8.548;2023-05-07T05:39:55;18.60;65.60
19567;DHT22;9930;49.240;8.548;2023-05-07T05:42:21;18.70;65.60
19567;DHT22;9930;49.240;8.548;2023-05-07T05:44:47;18.80;65.60
19567;DHT22;9930;49.240;8.548;2023-05-07T05:47:12;18.90;65.60
19567;DHT22;9930;49.240;8.548;2023-05-07T05:49:38;19.00;65.90
19567;DHT22;9930;49.240;8.548;2023-05-07T05:52:05;19.10;66.10
19567;DHT22;9930;49.240;8.548;2023-05-07T05:54:35;19.30;66.20
19567;DHT22;9930;49.240;8.548;2023-05-07T05:57:05;19.50;66.00
19567;DHT22;9930;49.240;8.548;2023-05-07T05:59:39;19.60;65.50
19567;DHT22;9930;49.240;8.548;2023-05-07T06:02:06;19.80;65.40
19567;DHT22;9930;49.240;8.548;2023-05-07T06:04:32;19.90;65.10
19567;DHT22;9930;49.240;8.548;2023-05-07T06:07:01;20.00;65.00
19567;DHT22;9930;49.240;8.548;2023-05-07T06:09:27;20.10;64.70
19567;DHT22;9930;49.240;8.548;2023-05-07T06:11:55;20.20;64.40
19567;DHT22;9930;49.240;8.548;2023-05-07T06:14:21;20.30;64.20
19567;DHT22;9930;49.240;8.548;2023-05-07T06:16:46;20.30;63.90
19567;DHT22;9930;49.240;8.548;2023-05-07T06:19:17;20.40;63.90
19567;DHT22;9930;49.240;8.548;2023-05-07T06:21:48;20.40;63.80
19567;DHT22;9930;49.240;8.548;2023-05-07T06:24:14;20.50;63.80
19567;DHT22;9930;49.240;8.548;2023-05-07T06:26:42;20.60;64.00
19567;DHT22;9930;49.240;8.548;2023-05-07T06:29:12;20.70;64.20
19567;DHT22;9930;49.240;8.548;2023-05-07T06:31:40;20.80;64.10
19567;DHT22;9930;49.240;8.548;2023-05-07T06:34:08;20.90;63.60
19567;DHT22;9930;49.240;8.548;2023-05-07T06:36:35;21.00;63.00
19567;DHT22;9930;49.240;8.548;2023-05-07T06:39:03;21.00;62.70
19567;DHT22;9930;49.240;8.548;2023-05-07T06:41:31;21.00;62.40
19567;DHT22;9930;49.240;8.548;2023-05-07T06:44:02;21.00;62.30
19567;DHT22;9930;49.240;8.548;2023-05-07T06:46:30;21.10;62.20
19567;DHT22;9930;49.240;8.548;2023-05-07T06:48:56;21.10;62.30
19567;DHT22;9930;49.240;8.548;2023-05-07T06:51:22;21.20;62.50
19567;DHT22;9930;49.240;8.548;2023-05-07T06:53:50;21.20;62.40
19567;DHT22;9930;49.240;8.548;2023-05-07T06:56:16;21.30;62.10
19567;DHT22;9930;49.240;8.548;2023-05-07T06:58:46;21.30;61.80
19567;DHT22;9930;49.240;8.548;2023-05-07T07:01:12;21.40;61.80
19567;DHT22;9930;49.240;8.548;2023-05-07T07:03:40;21.40;61.70
19567;DHT22;9930;49.240;8.548;2023-05-07T07:06:08;21.50;61.60
19567;DHT22;9930;49.240;8.548;2023-05-07T07:08:36;21.60;61.60
19567;DHT22;9930;49.240;8.548;2023-05-07T07:11:04;21.60;61.60
19567;DHT22;9930;49.240;8.548;2023-05-07T07:13:31;21.70;61.90
19567;DHT22;9930;49.240;8.548;2023-05-07T07:15:56;21.80;62.00
19567;DHT22;9930;49.240;8.548;2023-05-07T07:18:22;21.90;62.00
19567;DHT22;9930;49.240;8.548;2023-05-07T07:20:50;22.00;61.90
19567;DHT22;9930;49.240;8.548;2023-05-07T07:23:16;22.10;61.80
19567;DHT22;9930;49.240;8.548;2023-05-07T07:25:42;22.30;61.50
19567;DHT22;9930;49.240;8.548;2023-05-07T07:28:07;22.30;61.10
19567;DHT22;9930;49.240;8.548;2023-05-07T07:30:33;22.40;61.00
19567;DHT22;9930;49.240;8.548;2023-05-07T07:33:00;22.50;61.00
19567;DHT22;9930;49.240;8.548;2023-05-07T07:35:29;22.60;61.20
19567;DHT22;9930;49.240;8.548;2023-05-07T07:37:57;22.70;61.10
19567;DHT22;9930;49.240;8.548;2023-05-07T07:40:24;22.80;60.90
19567;DHT22;9930;49.240;8.548;2023-05-07T07:42:52;23.00;60.90
19567;DHT22;9930;49.240;8.548;2023-05-07T07:45:19;23.10;60.80
19567;DHT22;9930;49.240;8.548;2023-05-07T07:47:49;23.20;60.30
19567;DHT22;9930;49.240;8.548;2023-05-07T07:50:15;23.30;59.90
19567;DHT22;9930;49.240;8.548;2023-05-07T07:52:40;23.40;59.50
19567;DHT22;9930;49.240;8.548;2023-05-07T07:55:09;23.50;59.60
19567;DHT22;9930;49.240;8.548;2023-05-07T07:57:36;23.60;59.60
19567;DHT22;9930;49.240;8.548;2023-05-07T08:00:02;23.70;59.60
19567;DHT22;9930;49.240;8.548;2023-05-07T08:02:29;23.90;59.50
19567;DHT22;9930;49.240;8.548;2023-05-07T08:04:55;24.00;59.70
19567;DHT22;9930;49.240;8.548;2023-05-07T08:07:23;24.20;59.70
19567;DHT22;9930;49.240;8.548;2023-05-07T08:09:49;24.40;59.60
19567;DHT22;9930;49.240;8.548;2023-05-07T08:12:14;24.50;59.00
19567;DHT22;9930;49.240;8.548;2023-05-07T08:14:40;24.60;58.30
19567;DHT22;9930;49.240;8.548;2023-05-07T08:20:35;24.70;57.10
19567;DHT22;9930;49.240;8.548;2023-05-07T08:23:10;24.80;57.30
19567;DHT22;9930;49.240;8.548;2023-05-07T08:25:36;24.80;57.20
19567;DHT22;9930;49.240;8.548;2023-05-07T08:28:02;24.80;56.80
19567;DHT22;9930;49.240;8.548;2023-05-07T08:30:33;24.80;56.10
19567;DHT22;9930;49.240;8.548;2023-05-07T08:33:04;24.80;56.00
19567;DHT22;9930;49.240;8.548;2023-05-07T08:35:31;24.80;56.20
19567;DHT22;9930;49.240;8.548;2023-05-07T08:37:57;24.70;56.50
19567;DHT22;9930;49.240;8.548;2023-05-07T08:40:25;24.70;56.40
19567;DHT22;9930;49.240;8.548;2023-05-07T08:42:56;24.70;56.20
19567;DHT22;9930;49.240;8.548;2023-05-07T08:45:23;24.70;56.30
19567;DHT22;9930;49.240;8.548;2023-05-07T08:47:58;24.70;56.10
19567;DHT22;9930;49.240;8.548;2023-05-07T08:50:30;24.70;55.70
19567;DHT22;9930;49.240;8.548;2023-05-07T08:52:58;24.80;56.30
19567;DHT22;9930;49.240;8.548;2023-05-07T08:55:25;24.80;56.60
19567;DHT22;9930;49.240;8.548;2023-05-07T08:57:51;24.90;56.60
19567;DHT22;9930;49.240;8.548;2023-05-07T09:00:20;25.00;56.80
19567;DHT22;9930;49.240;8.548;2023-05-07T09:02:46;25.10;56.30
19567;DHT22;9930;49.240;8.548;2023-05-07T09:05:12;25.20;56.10
19567;DHT22;9930;49.240;8.548;2023-05-07T09:07:38;25.30;55.90
19567;DHT22;9930;49.240;8.548;2023-05-07T09:10:05;25.40;55.60
19567;DHT22;9930;49.240;8.548;2023-05-07T09:12:39;25.50;55.80
19567;DHT22;9930;49.240;8.548;2023-05-07T09:15:06;25.50;55.30
19567;DHT22;9930;49.240;8.548;2023-05-07T09:17:33;25.60;55.60
19567;DHT22;9930;49.240;8.548;2023-05-07T09:20:05;25.80;55.70
19567;DHT22;9930;49.240;8.548;2023-05-07T09:22:36;25.90;55.50
19567;DHT22;9930;49.240;8.548;2023-05-07T09:25:07;26.10;55.40
19567;DHT22;9930;49.240;8.548;2023-05-07T09:27:35;26.20;55.30
19567;DHT22;9930;49.240;8.548;2023-05-07T09:30:06;26.40;54.70
19567;DHT22;9930;49.240;8.548;2023-05-07T09:32:35;26.50;54.40
19567;DHT22;9930;49.240;8.548;2023-05-07T09:35:16;26.60;54.40
19567;DHT22;9930;49.240;8.548;2023-05-07T09:37:43;26.70;54.10
19567;DHT22;9930;49.240;8.548;2023-05-07T09:40:22;26.80;54.40
19567;DHT22;9930;49.240;8.548;2023-05-07T09:42:49;26.80;53.10
19567;DHT22;9930;49.240;8.548;2023-05-07T09:45:28;26.90;53.40
19567;DHT22;9930;49.240;8.548;2023-05-07T09:47:57;27.00;52.70
19567;DHT22;9930;49.240;8.548;2023-05-07T09:50:30;27.00;53.00
19567;DHT22;9930;49.240;8.548;2023-05-07T09:53:04;27.00;52.80
19567;DHT22;9930;49.240;8.548;2023-05-07T09:55:33;27.10;52.70
19567;DHT22;9930;49.240;8.548;2023-05-07T09:57:59;27.20;52.70
19567;DHT22;9930;49.240;8.548;2023-05-07T10:00:30;27.20;52.30
19567;DHT22;9930;49.240;8.548;2023-05-07T10:03:01;27.20;51.90
19567;DHT22;9930;49.240;8.548;2023-05-07T10:05:29;27.20;51.60
19567;DHT22;9930;49.240;8.548;2023-05-07T10:07:55;27.20;51.70
19567;DHT22;9930;49.240;8.548;2023-05-07T10:10:24;27.20;51.90
19567;DHT22;9930;49.240;8.548;2023-05-07T10:12:51;27.20;51.90
19567;DHT22;9930;49.240;8.548;2023-05-07T10:15:25;27.30;52.20
19567;DHT22;9930;49.240;8.548;2023-05-07T10:17:53;27.30;52.00
19567;DHT22;9930;49.240;8.548;2023-05-07T10:20:23;27.40;52.00
19567;DHT22;9930;49.240;8.548;2023-05-07T10:22:53;27.50;52.10
19567;DHT22;9930;49.240;8.548;2023-05-07T10:25:28;27.60;52.00
19567;DHT22;9930;49.240;8.548;2023-05-07T10:28:00;27.70;51.60
19567;DHT22;9930;49.240;8.548;2023-05-07T10:33:37;27.70;50.90
19567;DHT22;9930;49.240;8.548;2023-05-07T10:36:05;27.70;51.20
19567;DHT22;9930;49.240;8.548;2023-05-07T10:38:37;27.80;51.10
19567;DHT22;9930;49.240;8.548;2023-05-07T10:41:10;27.80;50.90
19567;DHT22;9930;49.240;8.548;2023-05-07T10:43:41;27.80;50.80
19567;DHT22;9930;49.240;8.548;2023-05-07T10:46:16;27.80;51.10
19567;DHT22;9930;49.240;8.548;2023-05-07T10:51:38;27.80;50.80
19567;DHT22;9930;49.240;8.548;2023-05-07T10:56:38;28.10;51.10
19567;DHT22;9930;49.240;8.548;2023-05-07T11:02:02;28.30;50.70
19567;DHT22;9930;49.240;8.548;2023-05-07T11:04:32;28.50;50.90
19567;DHT22;9930;49.240;8.548;2023-05-07T11:09:56;28.60;50.10
19567;DHT22;9930;49.240;8.548;2023-05-07T11:15:12;28.70;49.80
19567;DHT22;9930;49.240;8.548;2023-05-07T11:17:59;28.80;50.10
19567;DHT22;9930;49.240;8.548;2023-05-07T11:26:10;28.70;48.50
19567;DHT22;9930;49.240;8.548;2023-05-07T11:28:45;28.70;48.70
19567;DHT22;9930;49.240;8.548;2023-05-07T11:31:14;28.60;48.30
19567;DHT22;9930;49.240;8.548;2023-05-07T11:33:47;28.60;48.90
19567;DHT22;9930;49.240;8.548;2023-05-07T11:36:15;28.50;49.00
19567;DHT22;9930;49.240;8.548;2023-05-07T11:38:42;28.40;48.90
19567;DHT22;9930;49.240;8.548;2023-05-07T11:41:08;28.40;48.80
19567;DHT22;9930;49.240;8.548;2023-05-07T11:43:53;28.40;48.50
19567;DHT22;9930;49.240;8.548;2023-05-07T11:46:28;28.30;48.30
19567;DHT22;9930;49.240;8.548;2023-05-07T11:48:56;28.30;48.80
19567;DHT22;9930;49.240;8.548;2023-05-07T11:51:26;28.30;48.80
19567;DHT22;9930;49.240;8.548;2023-05-07T11:53:54;28.20;48.30
19567;DHT22;9930;49.240;8.548;2023-05-07T11:56:20;28.20;48.30
19567;DHT22;9930;49.240;8.548;2023-05-07T11:58:48;28.10;48.30
19567;DHT22;9930;49.240;8.548;2023-05-07T12:01:17;28.00;48.20
19567;DHT22;9930;49.240;8.548;2023-05-07T12:03:44;27.90;47.90
19567;DHT22;9930;49.240;8.548;2023-05-07T12:06:14;27.80;48.10
19567;DHT22;9930;49.240;8.548;2023-05-07T12:08:42;27.70;48.10
19567;DHT22;9930;49.240;8.548;2023-05-07T12:11:12;27.70;48.30
19567;DHT22;9930;49.240;8.548;2023-05-07T12:13:43;27.60;48.20
19567;DHT22;9930;49.240;8.548;2023-05-07T12:16:09;27.60;48.50
19567;DHT22;9930;49.240;8.548;2023-05-07T12:18:39;27.50;48.60
19567;DHT22;9930;49.240;8.548;2023-05-07T12:21:07;27.50;48.70
19567;DHT22;9930;49.240;8.548;2023-05-07T12:23:37;27.50;48.90
19567;DHT22;9930;49.240;8.548;2023-05-07T12:26:13;27.40;49.00
19567;DHT22;9930;49.240;8.548;2023-05-07T12:28:39;27.50;49.10
19567;DHT22;9930;49.240;8.548;2023-05-07T12:31:07;27.50;49.00
19567;DHT22;9930;49.240;8.548;2023-05-07T12:33:39;27.50;48.90
19567;DHT22;9930;49.240;8.548;2023-05-07T12:36:08;27.60;49.10
19567;DHT22;9930;49.240;8.548;2023-05-07T12:38:36;27.60;48.90
19567;DHT22;9930;49.240;8.548;2023-05-07T12:41:07;27.60;48.60
19567;DHT22;9930;49.240;8.548;2023-05-07T12:43:44;27.60;48.50
19567;DHT22;9930;49.240;8.548;2023-05-07T12:46:14;27.60;48.60
19567;DHT22;9930;49.240;8.548;2023-05-07T12:48:48;27.60;48.70
19567;DHT22;9930;49.240;8.548;2023-05-07T12:51:25;27.60;48.60
19567;DHT22;9930;49.240;8.548;2023-05-07T12:53:55;27.60;48.50
19567;DHT22;9930;49.240;8.548;2023-05-07T12:56:23;27.50;48.60
19567;DHT22;9930;49.240;8.548;2023-05-07T12:58:49;27.60;48.90
19567;DHT22;9930;49.240;8.548;2023-05-07T13:01:15;27.60;48.90
19567;DHT22;9930;49.240;8.548;2023-05-07T13:03:48;27.60;49.10
19567;DHT22;9930;49.240;8.548;2023-05-07T13:06:18;27.60;48.90
19567;DHT22;9930;49.240;8.548;2023-05-07T13:08:44;27.60;48.90
19567;DHT22;9930;49.240;8.548;2023-05-07T13:11:12;27.70;48.90
19567;DHT22;9930;49.240;8.548;2023-05-07T13:13:40;27.70;48.80
19567;DHT22;9930;49.240;8.548;2023-05-07T13:16:07;27.80;48.80
19567;DHT22;9930;49.240;8.548;2023-05-07T13:18:35;27.80;48.80
19567;DHT22;9930;49.240;8.548;2023-05-07T13:21:03;27.80;49.10
19567;DHT22;9930;49.240;8.548;2023-05-07T13:23:32;27.80;48.80
19567;DHT22;9930;49.240;8.548;2023-05-07T13:26:03;27.80;48.70
19567;DHT22;9930;49.240;8.548;2023-05-07T13:28:30;27.90;49.10
19567;DHT22;9930;49.240;8.548;2023-05-07T13:30:56;27.90;48.50
19567;DHT22;9930;49.240;8.548;2023-05-07T13:33:21;27.90;48.60
19567;DHT22;9930;49.240;8.548;2023-05-07T13:35:50;27.90;48.90
19567;DHT22;9930;49.240;8.548;2023-05-07T13:38:15;27.90;49.20
19567;DHT22;9930;49.240;8.548;2023-05-07T13:40:41;27.90;49.40
19567;DHT22;9930;49.240;8.548;2023-05-07T13:43:07;27.80;49.40
19567;DHT22;9930;49.240;8.548;2023-05-07T13:45:33;27.80;49.50
19567;DHT22;9930;49.240;8.548;2023-05-07T13:47:59;27.70;49.40
19567;DHT22;9930;49.240;8.548;2023-05-07T13:50:28;27.70;49.40
19567;DHT22;9930;49.240;8.548;2023-05-07T13:52:56;27.60;49.50
19567;DHT22;9930;49.240;8.548;2023-05-07T13:55:29;27.50;50.20
19567;DHT22;9930;49.240;8.548;2023-05-07T13:57:59;27.40;51.20
19567;DHT22;9930;49.240;8.548;2023-05-07T14:00:26;27.30;51.30
19567;DHT22;9930;49.240;8.548;2023-05-07T14:02:54;27.20;51.10
19567;DHT22;9930;49.240;8.548;2023-05-07T14:05:20;27.00;51.10
19567;DHT22;9930;49.240;8.548;2023-05-07T14:07:49;26.70;50.80
19567;DHT22;9930;49.240;8.548;2023-05-07T14:10:17;26.40;50.50
19567;DHT22;9930;49.240;8.548;2023-05-07T14:12:46;26.00;50.50
19567;DHT22;9930;49.240;8.548;2023-05-07T14:15:15;25.70;50.90
19567;DHT22;9930;49.240;8.548;2023-05-07T14:17:42;25.30;51.20
19567;DHT22;9930;49.240;8.548;2023-05-07T14:20:08;24.90;51.40
19567;DHT22;9930;49.240;8.548;2023-05-07T14:22:39;24.50;51.80
19567;DHT22;9930;49.240;8.548;2023-05-07T14:25:07;24.10;52.30
19567;DHT22;9930;49.240;8.548;2023-05-07T14:27:42;23.80;53.00
19567;DHT22;9930;49.240;8.548;2023-05-07T14:30:08;23.50;53.40
19567;DHT22;9930;49.240;8.548;2023-05-07T14:32:34;23.20;53.80
19567;DHT22;9930;49.240;8.548;2023-05-07T14:35:01;23.00;54.20
19567;DHT22;9930;49.240;8.548;2023-05-07T14:37:27;22.80;54.50
19567;DHT22;9930;49.240;8.548;2023-05-07T14:39:53;22.60;54.80
19567;DHT22;9930;49.240;8.548;2023-05-07T14:42:19;22.40;55.10
19567;DHT22;9930;49.240;8.548;2023-05-07T14:44:45;22.30;55.50
19567;DHT22;9930;49.240;8.548;2023-05-07T14:47:13;22.10;55.80
19567;DHT22;9930;49.240;8.548;2023-05-07T14:49:44;21.90;56.10
19567;DHT22;9930;49.240;8.548;2023-05-07T14:52:14;21.80;56.40
19567;DHT22;9930;49.240;8.548;2023-05-07T14:54:40;21.70;56.60
19567;DHT22;9930;49.240;8.548;2023-05-07T14:57:08;21.60;56.90
19567;DHT22;9930;49.240;8.548;2023-05-07T14:59:40;21.60;57.00
19567;DHT22;9930;49.240;8.548;2023-05-07T15:02:07;21.50;57.30
19567;DHT22;9930;49.240;8.548;2023-05-07T15:04:37;21.40;57.20
19567;DHT22;9930;49.240;8.548;2023-05-07T15:07:13;21.40;57.60
19567;DHT22;9930;49.240;8.548;2023-05-07T15:09:41;21.30;57.80
19567;DHT22;9930;49.240;8.548;2023-05-07T15:12:07;21.30;58.20
19567;DHT22;9930;49.240;8.548;2023-05-07T15:14:35;21.30;58.70
19567;DHT22;9930;49.240;8.548;2023-05-07T15:17:03;21.20;58.80
19567;DHT22;9930;49.240;8.548;2023-05-07T15:19:29;21.20;59.10
19567;DHT22;9930;49.240;8.548;2023-05-07T15:21:59;21.20;59.40
19567;DHT22;9930;49.240;8.548;2023-05-07T15:24:31;21.20;59.50
19567;DHT22;9930;49.240;8.548;2023-05-07T15:26:57;21.10;60.10
19567;DHT22;9930;49.240;8.548;2023-05-07T15:29:26;21.10;59.90
19567;DHT22;9930;49.240;8.548;2023-05-07T15:31:52;21.10;60.40
19567;DHT22;9930;49.240;8.548;2023-05-07T15:34:21;21.10;60.20
19567;DHT22;9930;49.240;8.548;2023-05-07T15:36:47;21.10;60.40
19567;DHT22;9930;49.240;8.548;2023-05-07T15:39:13;21.10;60.50
19567;DHT22;9930;49.240;8.548;2023-05-07T15:41:43;21.00;60.90
19567;DHT22;9930;49.240;8.548;2023-05-07T15:44:09;21.00;61.50
19567;DHT22;9930;49.240;8.548;2023-05-07T15:46:38;21.00;61.30
19567;DHT22;9930;49.240;8.548;2023-05-07T15:49:04;21.00;61.20
19567;DHT22;9930;49.240;8.548;2023-05-07T15:51:30;20.90;61.20
19567;DHT22;9930;49.240;8.548;2023-05-07T15:53:59;20.90;61.10
19567;DHT22;9930;49.240;8.548;2023-05-07T15:56:25;20.80;61.20
19567;DHT22;9930;49.240;8.548;2023-05-07T15:58:52;20.80;61.50
19567;DHT22;9930;49.240;8.548;2023-05-07T16:01:18;20.70;61.70
19567;DHT22;9930;49.240;8.548;2023-05-07T16:03:44;20.60;61.90
19567;DHT22;9930;49.240;8.548;2023-05-07T16:06:14;20.50;62.30
19567;DHT22;9930;49.240;8.548;2023-05-07T16:08:40;20.50;62.60
19567;DHT22;9930;49.240;8.548;2023-05-07T16:11:09;20.40;62.80
19567;DHT22;9930;49.240;8.548;2023-05-07T16:13:38;20.40;62.90
19567;DHT22;9930;49.240;8.548;2023-05-07T16:16:08;20.30;63.60
19567;DHT22;9930;49.240;8.548;2023-05-07T16:18:36;20.20;63.40